Time;durP1;ratioP1;P1;durP2;ratioP2;P2;SDS_P1;SDS_P2;PMS_P1;PMS_P2;Temp;Humidity;BMP_temperature;BMP_pressure;BME280_temperature;BME280_humidity;BME280_pressure;Samples;Min_cycle;Max_cycle;Signal;HPM_P1;HPM_P2
2023/01/04 00:01:32;;;;;;;17.87;8.20;;;;;;;4.30;67.85;101427.71;1737454;82;28314;-45
2023/01/04 00:03:58;;;;;;;17.35;6.87;;;;;;;4.30;67.91;101426.91;1737826;82;25899;-44
2023/01/04 00:06:24;;;;;;;11.95;5.12;;;;;;;4.29;67.86;101430.12;1738243;82;25480;-46
2023/01/04 00:08:54;;;;;;;15.05;6.75;;;;;;;4.27;67.83;101435.41;1738282;82;25685;-46
2023/01/04 00:11:24;;;;;;;9.73;5.67;;;;;;;4.23;67.78;101439.63;1738434;82;25601;-46
2023/01/04 00:13:57;;;;;;;16.00;7.95;;;;;;;4.19;67.79;101425.91;1738365;82;27503;-46
2023/01/04 00:16:28;;;;;;;12.20;6.03;;;;;;;4.15;67.86;101424.73;1738270;82;25815;-43
2023/01/04 00:18:58;;;;;;;18.25;8.63;;;;;;;4.13;67.96;101428.19;1738355;82;25405;-48
2023/01/04 00:21:31;;;;;;;18.70;8.45;;;;;;;4.10;67.98;101422.80;1738310;82;25637;-46
2023/01/04 00:24:01;;;;;;;17.50;7.45;;;;;;;4.08;68.11;101418.18;1738479;82;25396;-45
2023/01/04 00:26:34;;;;;;;18.42;7.42;;;;;;;4.07;68.05;101433.97;1738348;82;27031;-45
2023/01/04 00:29:06;;;;;;;15.32;7.65;;;;;;;4.04;68.17;101429.63;1738297;82;25723;-44
2023/01/04 00:31:36;;;;;;;16.85;7.45;;;;;;;4.00;68.19;101427.95;1738448;82;25373;-46
2023/01/04 00:34:07;;;;;;;28.00;12.33;;;;;;;3.98;68.28;101430.56;1711720;82;25684;-44
2023/01/04 00:36:35;;;;;;;21.68;8.08;;;;;;;3.96;68.35;101429.45;1738370;82;25617;-45
2023/01/04 00:39:06;;;;;;;15.20;7.42;;;;;;;3.95;68.37;101429.69;1738285;82;27415;-44
2023/01/04 00:41:43;;;;;;;20.85;8.20;;;;;;;3.92;68.43;101429.65;1738303;82;25558;-44
2023/01/04 00:44:15;;;;;;;26.10;8.13;;;;;;;3.91;68.50;101442.73;1738409;82;25852;-44
2023/01/04 00:46:47;;;;;;;13.75;6.25;;;;;;;3.89;68.53;101445.64;1738335;82;26222;-45
2023/01/04 00:49:15;;;;;;;16.95;8.05;;;;;;;3.87;68.50;101442.39;1738321;82;25551;-48
2023/01/04 00:51:43;;;;;;;24.95;12.30;;;;;;;3.86;68.60;101444.77;1738241;82;27425;-44
2023/01/04 00:54:15;;;;;;;19.70;9.93;;;;;;;3.84;68.65;101445.53;1738188;82;25462;-45
2023/01/04 00:56:45;;;;;;;20.85;9.78;;;;;;;3.85;68.67;101453.06;1738399;82;25570;-45
2023/01/04 00:59:16;;;;;;;17.67;6.80;;;;;;;3.82;68.64;101458.34;1738333;82;25734;-45
2023/01/04 01:01:46;;;;;;;11.55;5.90;;;;;;;3.83;68.75;101459.16;1735848;82;25576;-45
2023/01/04 01:04:18;;;;;;;15.50;8.03;;;;;;;3.82;68.70;101463.70;1739481;82;27335;-45
2023/01/04 01:06:50;;;;;;;17.75;7.22;;;;;;;3.82;68.69;101468.25;1740220;82;25718;-45
2023/01/04 01:09:23;;;;;;;16.62;6.58;;;;;;;3.80;68.74;101471.16;1740144;82;25659;-45
2023/01/04 01:11:55;;;;;;;16.82;6.90;;;;;;;3.80;68.77;101468.98;1740050;82;25695;-45
2023/01/04 01:14:25;;;;;;;13.15;6.83;;;;;;;3.80;68.84;101477.02;1740152;82;25453;-45
2023/01/04 01:16:54;;;;;;;13.22;6.55;;;;;;;3.79;68.84;101476.74;1740233;82;27350;-45
2023/01/04 01:19:28;;;;;;;12.78;7.00;;;;;;;3.78;68.79;101467.91;1740365;82;25652;-44
2023/01/04 01:22:02;;;;;;;13.53;6.35;;;;;;;3.78;68.88;101468.41;1740094;82;25435;-45
2023/01/04 01:24:34;;;;;;;11.85;6.33;;;;;;;3.76;68.81;101456.59;1740081;82;25616;-45
2023/01/04 01:27:00;;;;;;;12.05;6.78;;;;;;;3.73;68.80;101460.58;1710844;82;25494;-44
2023/01/04 01:29:26;;;;;;;12.58;6.33;;;;;;;3.70;68.78;101457.02;1740099;82;27383;-45
2023/01/04 01:31:55;;;;;;;17.32;7.30;;;;;;;3.66;68.84;101463.90;1740029;82;25461;-48
2023/01/04 01:34:23;;;;;;;9.70;4.70;;;;;;;3.63;68.95;101469.72;1740195;82;25554;-45
2023/01/04 01:36:54;;;;;;;15.80;6.42;;;;;;;3.61;68.96;101469.64;1740066;82;25627;-45
2023/01/04 01:39:29;;;;;;;11.97;5.62;;;;;;;3.59;69.05;101473.08;1740194;82;25405;-43
2023/01/04 01:41:58;;;;;;;13.60;7.78;;;;;;;3.58;69.09;101472.27;1740234;82;27391;-47
2023/01/04 01:44:58;;;;;;;19.60;7.33;;;;;;;3.57;69.23;101474.65;1740220;82;25714;-47
2023/01/04 01:47:44;;;;;;;16.85;7.80;;;;;;;3.57;69.26;101468.49;1738325;82;25617;-45
2023/01/04 01:50:28;;;;;;;14.85;6.62;;;;;;;3.57;69.17;101457.26;1740099;82;25666;-46
2023/01/04 01:53:03;;;;;;;15.03;7.03;;;;;;;3.54;69.22;101458.55;1732187;82;25524;-44
2023/01/04 01:55:36;;;;;;;12.82;6.87;;;;;;;3.53;69.16;101450.76;1740112;82;27403;-43
2023/01/04 01:58:11;;;;;;;17.95;7.50;;;;;;;3.49;69.19;101442.39;1710780;82;25612;-46
2023/01/04 02:00:40;;;;;;;13.68;6.78;;;;;;;3.47;69.26;101439.11;1738512;82;25412;-46
2023/01/04 02:03:21;;;;;;;14.13;7.25;;;;;;;3.45;69.28;101443.88;1740326;81;25624;-44
2023/01/04 02:05:53;;;;;;;15.53;7.08;;;;;;;3.42;69.27;101436.31;1738513;82;25678;-45
2023/01/04 02:08:24;;;;;;;13.08;6.17;;;;;;;3.36;69.22;101433.26;1743051;82;26582;-44
2023/01/04 02:10:51;;;;;;;13.32;6.33;;;;;;;3.31;69.21;101433.14;1742937;82;25483;-44
2023/01/04 02:14:25;;;;;;;16.12;7.12;;;;;;;3.26;69.33;101444.52;1742988;82;25646;-43
2023/01/04 02:16:17;;;;;;;13.60;6.50;;;;;;;3.22;69.28;101448.72;1738792;82;25626;-44
2023/01/04 02:19:04;;;;;;;15.30;6.83;;;;;;;3.17;69.49;101444.59;1661930;85;25642;-44
2023/01/04 02:21:45;;;;;;;14.40;6.20;;;;;;;3.15;69.34;101450.66;1655292;85;27071;-44
2023/01/04 02:24:47;;;;;;;16.52;7.17;;;;;;;3.11;69.38;101444.16;1666803;85;25632;-44
2023/01/04 02:31:42;;;;;;;16.52;6.92;;;;;;;3.01;69.40;101436.70;1679510;85;25637;-47
2023/01/04 02:34:40;;;;;;;11.50;5.97;;;;;;;2.93;69.70;101434.39;1679424;85;25645;-44
2023/01/04 02:37:46;;;;;;;13.35;6.70;;;;;;;2.87;70.02;101429.41;1676926;84;27354;-44
2023/01/04 02:40:50;;;;;;;12.47;7.40;;;;;;;2.78;70.06;101428.94;1679383;85;25620;-44
2023/01/04 02:46:09;;;;;;;17.15;7.95;;;;;;;2.74;70.45;101435.80;1905588;74;34661;-45
2023/01/04 02:54:11;;;;;;;16.02;8.25;;;;;;;2.50;70.45;101422.06;1811314;79;26186;-44
2023/01/04 02:56:55;;;;;;;21.57;9.50;;;;;;;2.41;70.77;101427.71;1840408;78;25510;-45
2023/01/04 02:59:52;;;;;;;18.35;8.50;;;;;;;2.34;70.95;101430.19;1840764;78;25541;-45
2023/01/04 03:07:23;;;;;;;18.42;9.30;;;;;;;2.11;71.67;101425.55;1824569;78;25596;-45
2023/01/04 03:10:30;;;;;;;18.30;8.93;;;;;;;2.00;72.20;101419.92;1729753;83;27530;-45
2023/01/04 03:13:08;;;;;;;18.02;9.35;;;;;;;1.92;72.16;101420.22;1651322;86;25660;-45
2023/01/04 03:15:40;;;;;;;27.15;11.05;;;;;;;1.84;72.48;101435.22;1651404;86;25593;-44
2023/01/04 03:18:24;;;;;;;19.77;11.05;;;;;;;1.77;72.81;101427.29;1651656;85;25296;-44
2023/01/04 03:20:56;;;;;;;21.52;10.75;;;;;;;1.72;72.75;101428.97;1628828;86;25469;-45
2023/01/04 03:35:22;;;;;;;23.67;10.35;;;;;;;1.43;72.98;101393.98;1624840;88;25517;-45
2023/01/04 03:50:27;;;;;;;23.98;12.63;;;;;;;1.02;73.92;101390.06;1710387;83;25439;-44
2023/01/04 03:52:58;;;;;;;21.93;12.03;;;;;;;0.97;74.73;101396.06;1710433;83;27517;-45
2023/01/04 03:55:29;;;;;;;23.42;12.70;;;;;;;0.91;74.99;101393.73;1710177;83;25600;-45
2023/01/04 03:57:59;;;;;;;22.07;13.05;;;;;;;0.86;75.00;101392.23;1710272;83;25549;-44
2023/01/04 04:00:33;;;;;;;25.37;12.80;;;;;;;0.82;75.38;101393.72;1710163;83;25653;-45
2023/01/04 04:03:08;;;;;;;25.17;12.10;;;;;;;0.79;74.76;101396.00;1710209;83;25491;-45
2023/01/04 04:08:29;;;;;;;23.98;13.72;;;;;;;0.66;75.23;101395.56;1710232;83;25641;-45
2023/01/04 04:13:51;;;;;;;27.07;12.98;;;;;;;0.51;75.70;101370.57;1678776;83;25581;-45
2023/01/04 04:16:18;;;;;;;24.55;14.07;;;;;;;0.45;75.80;101370.92;1709764;83;25737;-45
2023/01/04 04:18:48;;;;;;;27.27;14.33;;;;;;;0.38;76.62;101372.82;1709764;83;27516;-44
2023/01/04 04:21:14;;;;;;;25.32;14.18;;;;;;;0.34;76.64;101375.09;1657307;85;27421;-43
2023/01/04 04:23:41;;;;;;;26.80;14.47;;;;;;;0.33;76.91;101380.11;1675618;85;25475;-45
2023/01/04 04:26:11;;;;;;;27.80;13.48;;;;;;;0.28;76.97;101375.94;1680194;85;27392;-45
2023/01/04 04:28:39;;;;;;;26.40;14.85;;;;;;;0.25;77.26;101384.34;1680187;85;25687;-46
2023/01/04 04:31:07;;;;;;;26.57;14.05;;;;;;;0.19;77.40;101387.88;1680275;85;27630;-44
2023/01/04 04:33:33;;;;;;;31.23;13.58;;;;;;;0.14;77.41;101383.71;1680040;85;25402;-45
2023/01/04 04:35:59;;;;;;;26.37;13.90;;;;;;;0.10;77.38;101381.99;1680150;85;25445;-45
2023/01/04 04:38:26;;;;;;;25.40;13.58;;;;;;;0.05;77.48;101380.48;1680146;85;25573;-46
2023/01/04 04:43:37;;;;;;;27.48;15.58;;;;;;;-0.01;77.80;101376.00;1680290;85;27408;-48
2023/01/04 04:46:06;;;;;;;26.82;14.47;;;;;;;-0.12;77.85;101359.36;1680099;85;27260;-44
2023/01/04 04:48:34;;;;;;;28.65;14.20;;;;;;;-0.10;78.08;101366.12;1680265;85;25631;-46
2023/01/04 04:51:00;;;;;;;25.23;13.40;;;;;;;-0.15;78.17;101366.42;1680172;85;25420;-44
2023/01/04 04:53:26;;;;;;;25.35;13.08;;;;;;;-0.21;77.88;101362.25;1680195;85;25605;-45
2023/01/04 04:55:54;;;;;;;27.90;15.13;;;;;;;-0.24;77.93;101368.52;1680147;85;27622;-44
2023/01/04 04:58:22;;;;;;;24.40;13.83;;;;;;;-0.28;78.15;101363.32;1680093;85;25491;-44
2023/01/04 05:00:48;;;;;;;25.27;14.18;;;;;;;-0.33;78.14;101363.14;1680113;85;25586;-45
2023/01/04 05:03:15;;;;;;;23.42;13.58;;;;;;;-0.38;78.04;101367.22;1650028;85;25596;-44
2023/01/04 05:05:43;;;;;;;24.37;13.85;;;;;;;-0.43;78.46;101368.36;1680211;85;25573;-44
2023/01/04 05:10:37;;;;;;;24.52;14.60;;;;;;;-0.50;78.58;101366.25;1624905;88;25460;-44
2023/01/04 05:13:11;;;;;;;25.77;15.55;;;;;;;-0.53;78.71;101365.33;1622192;88;25591;-44
2023/01/04 05:15:46;;;;;;;23.25;13.38;;;;;;;-0.55;79.10;101370.04;1625147;88;26144;-44
2023/01/04 05:18:19;;;;;;;23.73;13.25;;;;;;;-0.58;79.44;101369.96;1625016;88;25672;-46
2023/01/04 05:20:49;;;;;;;26.65;14.10;;;;;;;-0.63;79.48;101363.13;1625557;86;28350;-47
2023/01/04 05:23:21;;;;;;;28.52;14.68;;;;;;;-0.65;79.73;101370.46;1624814;88;25619;-44
2023/01/04 05:25:58;;;;;;;29.25;14.35;;;;;;;-0.68;79.56;101371.39;1625022;88;25642;-44
2023/01/04 05:28:26;;;;;;;29.02;13.98;;;;;;;-0.71;79.60;101372.64;1624964;88;25622;-45
2023/01/04 05:30:56;;;;;;;28.20;14.58;;;;;;;-0.74;79.82;101374.38;1625042;88;25649;-47
2023/01/04 05:33:28;;;;;;;26.73;14.63;;;;;;;-0.79;80.25;101363.55;1624932;88;29678;-45
2023/01/04 05:35:59;;;;;;;29.25;14.95;;;;;;;-0.84;79.70;101359.37;1624897;88;25663;-45
2023/01/04 05:38:28;;;;;;;29.55;14.55;;;;;;;-0.89;79.97;101340.58;1624989;88;25508;-45
2023/01/04 05:40:58;;;;;;;28.90;14.23;;;;;;;-0.92;79.88;101341.80;1624883;87;25756;-44
2023/01/04 05:43:31;;;;;;;25.35;14.38;;;;;;;-0.96;79.91;101332.10;1624978;88;25725;-45
2023/01/04 05:46:00;;;;;;;28.35;14.68;;;;;;;-1.00;80.06;101323.45;1625000;88;27573;-44
2023/01/04 05:48:33;;;;;;;27.98;14.87;;;;;;;-1.06;79.52;101319.75;1624964;88;27290;-45
2023/01/04 05:50:59;;;;;;;27.07;14.43;;;;;;;-1.09;79.43;101327.32;1624987;88;25671;-43
2023/01/04 05:53:32;;;;;;;29.60;14.47;;;;;;;-1.15;79.86;101319.67;1649242;86;25884;-43
2023/01/04 05:56:08;;;;;;;26.33;14.60;;;;;;;-1.18;80.62;101317.42;1624973;88;25506;-45
2023/01/04 05:58:34;;;;;;;28.42;15.23;;;;;;;-1.22;80.56;101314.37;1647415;86;28321;-45
2023/01/04 06:01:00;;;;;;;30.00;15.03;;;;;;;-1.27;80.62;101318.15;1624978;88;31059;-44
2023/01/04 06:03:29;;;;;;;27.75;14.55;;;;;;;-1.28;80.93;101310.39;1603377;88;25641;-43
2023/01/04 06:05:56;;;;;;;26.55;14.38;;;;;;;-1.33;80.97;101317.14;1625043;88;26605;-45
2023/01/04 06:08:22;;;;;;;30.02;15.25;;;;;;;-1.32;81.48;101312.64;1672465;85;25498;-44
2023/01/04 06:10:55;;;;;;;26.23;15.03;;;;;;;-1.33;81.70;101308.34;1680165;85;27431;-43
2023/01/04 06:13:22;;;;;;;27.07;15.30;;;;;;;-1.35;81.69;101306.41;1676622;85;25407;-44
2023/01/04 06:15:48;;;;;;;29.02;14.87;;;;;;;-1.34;81.93;101312.03;1676650;85;25600;-44
2023/01/04 06:18:14;;;;;;;29.85;15.58;;;;;;;-1.36;82.07;101312.23;1676626;85;25561;-45
2023/01/04 06:20:44;;;;;;;29.57;16.17;;;;;;;-1.37;82.06;101315.90;1676631;85;25411;-46
2023/01/04 06:23:10;;;;;;;25.50;13.75;;;;;;;-1.38;82.44;101311.63;1676654;85;28489;-44
2023/01/04 06:25:38;;;;;;;32.33;15.75;;;;;;;-1.39;82.26;101314.48;1676700;85;25379;-46
2023/01/04 06:28:04;;;;;;;32.50;15.48;;;;;;;-1.40;82.20;101314.97;1676625;85;25389;-44
2023/01/04 06:30:36;;;;;;;28.57;16.02;;;;;;;-1.41;82.48;101308.05;1676630;84;34756;-44
2023/01/04 06:33:02;;;;;;;30.00;15.25;;;;;;;-1.44;82.75;101295.70;1676703;85;25644;-46
2023/01/04 06:35:28;;;;;;;32.15;16.37;;;;;;;-1.45;82.73;101286.91;1676650;85;27518;-44
2023/01/04 06:37:54;;;;;;;33.67;16.67;;;;;;;-1.47;82.43;101286.81;1676582;85;25636;-45
2023/01/04 06:40:20;;;;;;;34.75;16.73;;;;;;;-1.48;82.46;101289.15;1676638;85;25624;-44
2023/01/04 06:42:46;;;;;;;30.43;16.80;;;;;;;-1.49;82.64;101279.58;1676591;85;25451;-46
2023/01/04 06:45:16;;;;;;;33.95;17.10;;;;;;;-1.51;82.78;101282.43;1676713;85;25572;-47
2023/01/04 06:47:42;;;;;;;30.48;16.15;;;;;;;-1.51;82.82;101277.13;1676607;85;27563;-45
2023/01/04 06:50:12;;;;;;;37.03;18.70;;;;;;;-1.51;82.87;101278.45;1676633;85;25648;-46
2023/01/04 06:52:40;;;;;;;33.40;17.95;;;;;;;-1.49;82.98;101279.58;1676672;85;25635;-46
2023/01/04 06:55:10;;;;;;;34.88;17.25;;;;;;;-1.51;83.43;101273.14;1676567;85;27394;-46
2023/01/04 06:57:38;;;;;;;35.83;17.90;;;;;;;-1.52;83.26;101266.19;1671354;85;25639;-48
2023/01/04 07:00:15;;;;;;;33.38;17.55;;;;;;;-1.51;83.12;101265.19;1671197;85;27551;-47
2023/01/04 07:02:41;;;;;;;29.37;17.00;;;;;;;-1.49;83.19;101268.44;1671186;85;25471;-47
2023/01/04 07:05:10;;;;;;;33.58;18.05;;;;;;;-1.46;83.24;101264.55;1671263;85;25486;-45
2023/01/04 07:07:36;;;;;;;35.73;16.87;;;;;;;-1.44;83.20;101268.64;1671327;85;25557;-46
2023/01/04 07:10:09;;;;;;;32.93;17.30;;;;;;;-1.41;83.21;101280.19;1671369;85;25585;-45
2023/01/04 07:12:39;;;;;;;32.53;17.95;;;;;;;-1.38;83.23;101284.25;1675537;85;27554;-45
2023/01/04 07:15:13;;;;;;;33.88;18.65;;;;;;;-1.35;83.39;101290.48;1679706;85;25578;-46
2023/01/04 07:17:39;;;;;;;32.88;17.35;;;;;;;-1.30;83.37;101292.01;1679837;85;25648;-46
2023/01/04 07:20:12;;;;;;;40.52;20.70;;;;;;;-1.29;83.39;101294.98;1679751;85;25514;-47
2023/01/04 07:22:38;;;;;;;38.98;18.82;;;;;;;-1.22;83.46;101297.63;1652394;85;25618;-45
2023/01/04 07:25:09;;;;;;;39.48;20.05;;;;;;;-1.20;83.41;101303.55;1679884;85;27590;-46
2023/01/04 07:27:36;;;;;;;36.58;19.65;;;;;;;-1.16;83.62;101304.27;1679744;85;25536;-46
2023/01/04 07:30:13;;;;;;;42.50;19.75;;;;;;;-1.10;83.67;101302.62;1679803;85;25485;-46
2023/01/04 07:36:29;;;;;;;38.60;20.37;;;;;;;-1.02;83.51;101298.91;1678673;85;25792;-46
2023/01/04 07:38:58;;;;;;;39.20;21.30;;;;;;;-1.01;83.55;101297.90;1679745;85;27154;-48
2023/01/04 07:41:24;;;;;;;41.88;20.60;;;;;;;-0.98;83.59;101289.52;1679687;85;25463;-46
2023/01/04 07:43:50;;;;;;;39.27;20.82;;;;;;;-0.96;83.50;101291.45;1679841;85;25428;-46
2023/01/04 07:46:16;;;;;;;32.88;19.37;;;;;;;-0.97;83.51;101277.86;1679657;85;27727;-47
2023/01/04 07:48:42;;;;;;;35.75;19.73;;;;;;;-0.96;83.44;101280.31;1679355;85;25670;-46
2023/01/04 07:51:09;;;;;;;38.40;19.60;;;;;;;-0.94;83.55;101281.43;1678899;85;29765;-45
2023/01/04 07:53:35;;;;;;;39.23;20.85;;;;;;;-0.89;83.74;101273.66;1679851;85;25720;-46
2023/01/04 07:56:01;;;;;;;42.83;22.05;;;;;;;-0.84;83.90;101270.38;1680047;85;25423;-46
2023/01/04 07:58:33;;;;;;;41.33;23.75;;;;;;;-0.79;84.17;101261.27;1679784;85;34771;-44
2023/01/04 08:01:13;;;;;;;43.90;22.32;;;;;;;-0.67;84.39;101262.77;1651102;85;25493;-44
2023/01/04 08:03:45;;;;;;;39.95;22.98;;;;;;;-0.53;84.65;101271.50;1678044;85;28157;-47
2023/01/04 08:06:17;;;;;;;43.23;23.65;;;;;;;-0.39;84.89;101261.92;1679936;85;25833;-45
2023/01/04 08:08:45;;;;;;;49.90;25.10;;;;;;;-0.27;85.00;101251.96;1679956;85;25597;-45
2023/01/04 08:11:16;;;;;;;45.85;24.37;;;;;;;-0.06;85.38;101253.46;1679839;85;25511;-45
2023/01/04 08:13:48;;;;;;;44.58;24.57;;;;;;;0.05;84.88;101234.16;1672992;85;25677;-47
2023/01/04 08:16:31;;;;;;;55.43;26.02;;;;;;;0.21;84.86;101229.34;1671414;85;27511;-47
2023/01/04 08:19:03;;;;;;;46.42;24.55;;;;;;;0.36;84.58;101229.30;1671392;85;25511;-46
2023/01/04 08:21:33;;;;;;;46.60;26.05;;;;;;;0.57;84.71;101230.47;1671352;85;25405;-47
2023/01/04 08:24:03;;;;;;;54.35;27.42;;;;;;;0.89;86.34;101226.64;1671326;85;25558;-46
2023/01/04 08:26:32;;;;;;;48.05;25.82;;;;;;;1.29;86.55;101220.88;1671295;85;25434;-46
2023/01/04 08:29:00;;;;;;;47.35;26.40;;;;;;;1.71;86.04;101213.44;1671245;85;27619;-48
2023/01/04 08:31:34;;;;;;;48.92;27.07;;;;;;;2.19;86.40;101199.14;1671302;85;25633;-45
2023/01/04 08:34:09;;;;;;;47.90;26.25;;;;;;;2.66;85.84;101194.34;1671432;85;25554;-45
2023/01/04 08:36:46;;;;;;;49.70;26.93;;;;;;;3.00;83.84;101182.50;1671330;85;25530;-47
2023/01/04 08:39:13;;;;;;;49.18;26.97;;;;;;;3.15;81.92;101194.00;1671336;85;25581;-47
2023/01/04 08:41:52;;;;;;;45.23;26.17;;;;;;;3.40;82.56;101196.36;1671215;85;27475;-47
2023/01/04 08:44:23;;;;;;;45.98;25.40;;;;;;;3.73;81.81;101194.30;1671303;85;25506;-47
2023/01/04 08:46:53;;;;;;;43.68;26.07;;;;;;;3.88;80.79;101186.23;1645537;85;25865;-46
2023/01/04 08:49:23;;;;;;;40.70;25.17;;;;;;;4.15;79.60;101179.72;1671267;85;26207;-47
2023/01/04 08:51:52;;;;;;;50.03;26.57;;;;;;;4.42;79.40;101173.70;1671312;85;25399;-47
2023/01/04 08:54:18;;;;;;;48.55;26.52;;;;;;;4.73;78.88;101168.21;1671397;85;27505;-47
2023/01/04 08:56:45;;;;;;;42.60;25.10;;;;;;;4.90;77.22;101182.11;1671441;85;25576;-46
2023/01/04 08:59:12;;;;;;;45.33;25.97;;;;;;;5.09;77.50;101175.39;1671437;85;25669;-47
2023/01/04 09:01:39;;;;;;;44.33;24.98;;;;;;;5.38;77.08;101184.02;1647950;85;27784;-47
2023/01/04 09:04:06;;;;;;;42.65;24.43;;;;;;;5.74;75.48;101196.99;1671458;85;25423;-47
2023/01/04 09:06:34;;;;;;;45.20;25.48;;;;;;;5.95;74.61;101188.58;1671471;85;27487;-47
2023/01/04 09:09:00;;;;;;;45.60;23.47;;;;;;;6.19;75.25;101194.98;1671368;85;25509;-46
2023/01/04 09:11:27;;;;;;;44.03;25.17;;;;;;;6.34;72.52;101185.14;1671420;85;25475;-47
2023/01/04 09:13:59;;;;;;;44.58;24.77;;;;;;;6.34;72.16;101175.73;1677751;85;25465;-48
2023/01/04 09:16:25;;;;;;;43.63;25.12;;;;;;;6.39;71.82;101170.94;1680043;85;25581;-47
2023/01/04 09:18:51;;;;;;;44.83;24.52;;;;;;;6.80;72.55;101164.98;1679953;85;28258;-47
2023/01/04 09:21:20;;;;;;;41.33;24.10;;;;;;;7.13;71.94;101144.91;1679950;85;25419;-50
2023/01/04 09:23:47;;;;;;;;;;;;;;;7.51;72.67;101150.10;1682396;85;25637;-48
2023/01/04 09:26:22;;;;;;;42.00;23.77;;;;;;;8.00;70.49;101154.45;1679934;85;25636;-48
2023/01/04 09:28:51;;;;;;;38.53;22.67;;;;;;;8.11;69.43;101141.77;1679971;85;25586;-46
2023/01/04 09:31:22;;;;;;;38.95;23.00;;;;;;;8.42;68.88;101137.67;1680078;85;27556;-48
2023/01/04 09:33:49;;;;;;;37.53;22.98;;;;;;;8.07;65.86;101128.59;1679827;85;25415;-49
2023/01/04 09:36:17;;;;;;;38.25;22.90;;;;;;;7.67;65.71;101119.44;1679889;85;25448;-47
2023/01/04 09:38:44;;;;;;;38.13;22.67;;;;;;;7.38;66.44;101111.87;1680100;85;25652;-48
2023/01/04 09:41:36;;;;;;;44.00;22.82;;;;;;;7.19;66.62;101108.88;1679930;85;25573;-46
2023/01/04 09:44:20;;;;;;;37.63;22.48;;;;;;;6.92;66.54;101095.09;1679896;85;27580;-46
2023/01/04 09:47:07;;;;;;;40.43;22.77;;;;;;;6.53;66.34;101095.48;1679279;85;25609;-47
2023/01/04 09:49:48;;;;;;;38.17;23.20;;;;;;;6.32;67.60;101087.06;1679954;85;25685;-48
2023/01/04 09:52:21;;;;;;;35.05;21.05;;;;;;;6.14;67.78;101095.80;1594449;90;26004;-47
2023/01/04 09:55:01;;;;;;;37.28;21.87;;;;;;;5.98;68.02;101089.53;1594636;90;25663;-46
2023/01/04 09:57:35;;;;;;;39.42;22.62;;;;;;;5.87;68.70;101089.15;1594629;90;27718;-48
2023/01/04 10:00:24;;;;;;;35.45;22.25;;;;;;;5.89;69.05;101078.98;1594544;90;25591;-48
2023/01/04 10:03:06;;;;;;;;;;;;;;;5.79;68.71;101059.58;1596931;90;25491;-47
2023/01/04 10:05:33;;;;;;;40.12;22.37;;;;;;;5.86;69.04;101061.24;1594628;90;26141;-45
2023/01/04 10:08:02;;;;;;;39.05;21.70;;;;;;;5.95;70.59;101056.99;1594570;90;25719;-45
2023/01/04 10:10:40;;;;;;;39.37;22.33;;;;;;;6.31;71.36;101049.95;1594804;90;27440;-45
2023/01/04 10:13:29;;;;;;;36.98;21.42;;;;;;;6.60;70.50;101045.51;1561599;91;25916;-47
2023/01/04 10:16:08;;;;;;;39.50;22.37;;;;;;;6.71;69.73;101047.17;1564352;91;25577;-46
2023/01/04 10:18:46;;;;;;;37.70;22.37;;;;;;;6.68;69.42;101031.56;1521744;94;27649;-46
2023/01/04 10:21:45;;;;;;;39.30;20.60;;;;;;;6.67;68.81;101040.69;1530096;93;25744;-48
2023/01/04 10:24:47;;;;;;;53.75;31.57;;;;;;;6.66;68.84;101037.75;1530040;93;27572;-48
2023/01/04 10:27:46;;;;;;;40.00;21.55;;;;;;;6.84;69.08;101028.91;1530111;93;25759;-58
2023/01/04 10:30:33;;;;;;;36.85;20.15;;;;;;;7.14;69.38;101021.98;1540579;92;25614;-54
2023/01/04 10:33:13;;;;;;;38.13;21.48;;;;;;;6.99;68.50;101007.42;1550625;92;25551;-48
2023/01/04 10:35:43;;;;;;;35.33;19.35;;;;;;;6.71;68.06;101009.53;1550685;92;25595;-51
2023/01/04 10:38:27;;;;;;;34.75;20.00;;;;;;;6.29;67.34;100997.02;1530865;92;27457;-47
2023/01/04 10:40:56;;;;;;;34.58;20.32;;;;;;;6.01;67.81;100990.72;1549639;92;25652;-49
2023/01/04 10:44:04;;;;;;;32.75;19.73;;;;;;;5.80;68.55;100985.20;1550785;92;25684;-48
2023/01/04 10:46:45;;;;;;;35.45;20.08;;;;;;;5.72;68.93;100975.78;1550648;92;25715;-50
2023/01/04 10:49:26;;;;;;;33.50;20.20;;;;;;;5.52;69.09;100970.28;1550661;92;25518;-49
2023/01/04 10:52:00;;;;;;;34.60;20.10;;;;;;;5.31;69.23;100947.85;1620816;88;27905;-48
2023/01/04 10:54:47;;;;;;;45.10;20.92;;;;;;;5.21;69.69;100937.84;1621809;88;25626;-48
2023/01/04 10:57:35;;;;;;;35.43;19.05;;;;;;;5.14;70.78;100919.33;1645847;86;25470;-48
2023/01/04 11:00:24;;;;;;;39.53;19.87;;;;;;;5.10;70.76;100911.50;1655245;86;25721;-48
2023/01/04 11:03:17;;;;;;;34.30;19.40;;;;;;;5.04;71.03;100895.11;1655485;86;25445;-48
2023/01/04 11:06:14;;;;;;;35.55;20.05;;;;;;;5.05;71.36;100881.96;1655461;86;27524;-47
2023/01/04 11:08:46;;;;;;;34.85;19.12;;;;;;;5.08;71.44;100878.77;1655326;86;25562;-47
2023/01/04 11:11:26;;;;;;;32.35;20.15;;;;;;;5.16;71.97;100867.57;1631086;86;25460;-50
2023/01/04 11:13:53;;;;;;;32.83;18.52;;;;;;;5.29;72.00;100853.42;1650463;86;25608;-50
2023/01/04 11:16:19;;;;;;;39.10;20.50;;;;;;;5.38;71.72;100845.14;1675986;85;25442;-50
2023/01/04 11:18:48;;;;;;;38.33;19.32;;;;;;;5.42;71.69;100846.25;1675958;85;27512;-49
2023/01/04 11:21:18;;;;;;;30.23;17.23;;;;;;;5.45;71.82;100840.37;1676044;85;25476;-48
2023/01/04 11:23:45;;;;;;;29.90;18.00;;;;;;;5.47;71.64;100844.14;1676007;85;25502;-49
2023/01/04 11:26:24;;;;;;;31.90;18.37;;;;;;;5.53;71.67;100844.42;1676147;85;25690;-48
2023/01/04 11:29:22;;;;;;;28.87;17.17;;;;;;;5.49;71.09;100837.97;1676462;85;25491;-50
2023/01/04 11:32:00;;;;;;;27.65;16.77;;;;;;;5.41;71.33;100829.36;1676096;85;27574;-48
2023/01/04 11:34:53;;;;;;;27.58;16.67;;;;;;;5.41;71.55;100818.62;1676040;85;25664;-49
2023/01/04 11:37:38;;;;;;;29.02;16.12;;;;;;;5.49;71.67;100820.53;1676142;85;25589;-52
2023/01/04 11:40:25;;;;;;;28.30;16.60;;;;;;;5.52;71.61;100813.30;1676111;85;25593;-50
2023/01/04 11:43:19;;;;;;;28.52;16.15;;;;;;;5.47;71.36;100810.05;1676161;85;25430;-49
2023/01/04 11:46:06;;;;;;;29.57;16.85;;;;;;;5.35;71.31;100786.13;1676135;85;27982;-49
2023/01/04 11:48:43;;;;;;;28.55;15.85;;;;;;;5.23;71.20;100783.66;1676043;85;25451;-48
2023/01/04 11:51:31;;;;;;;27.90;16.00;;;;;;;5.13;71.34;100772.08;1676141;85;25427;-52
2023/01/04 11:54:04;;;;;;;31.65;17.40;;;;;;;5.01;71.64;100755.66;1675629;85;25729;-51
2023/01/04 11:56:36;;;;;;;37.38;16.93;;;;;;;4.93;71.99;100756.14;1676138;85;25417;-47
2023/01/04 11:59:16;;;;;;;29.18;17.02;;;;;;;4.87;72.19;100742.45;1676090;85;29727;-48
2023/01/04 12:01:51;;;;;;;30.82;17.30;;;;;;;4.77;72.27;100732.47;1676065;85;25756;-48
2023/01/04 12:04:26;;;;;;;30.05;16.52;;;;;;;4.67;72.77;100717.67;1676112;85;25424;-48
2023/01/04 12:07:01;;;;;;;31.37;17.35;;;;;;;4.60;72.95;100714.42;1653269;85;25571;-50
2023/01/04 12:09:31;;;;;;;28.45;16.50;;;;;;;4.55;73.30;100703.13;1676235;85;25648;-49
2023/01/04 12:12:01;;;;;;;27.82;16.62;;;;;;;4.54;73.41;100698.03;1676144;85;28381;-52
2023/01/04 12:14:36;;;;;;;28.77;15.60;;;;;;;4.50;73.57;100684.34;1676402;85;25567;-52
2023/01/04 12:17:51;;;;;;;26.42;15.83;;;;;;;4.48;74.00;100682.47;1676857;85;25232;-53
2023/01/04 12:20:26;;;;;;;32.17;18.25;;;;;;;4.46;74.17;100669.84;1620354;88;27611;-52
2023/01/04 12:22:53;;;;;;;30.27;17.73;;;;;;;4.45;74.82;100652.97;1620321;88;25515;-48
2023/01/04 12:25:42;;;;;;;29.02;16.75;;;;;;;4.42;74.44;100650.00;1620236;88;27482;-50
2023/01/04 12:28:34;;;;;;;35.50;18.37;;;;;;;4.40;74.55;100652.14;1620184;88;25558;-48
2023/01/04 12:31:27;;;;;;;34.63;18.62;;;;;;;4.39;74.82;100639.80;1620356;88;25407;-48
2023/01/04 12:34:14;;;;;;;36.05;20.27;;;;;;;4.38;75.36;100632.31;1587091;90;26865;-52
2023/01/04 12:37:02;;;;;;;38.13;20.77;;;;;;;4.40;75.39;100635.53;1586453;90;25596;-49
2023/01/04 12:39:43;;;;;;;34.13;19.27;;;;;;;4.38;75.39;100628.29;1587083;90;29666;-47
2023/01/04 12:42:20;;;;;;;37.60;19.60;;;;;;;4.38;75.61;100617.58;1587027;90;25604;-47
2023/01/04 12:44:52;;;;;;;36.50;19.55;;;;;;;4.37;75.70;100613.27;1587131;90;25310;-50